createdAt,value
2022-07-25T00:01:12.812Z,101031.94
2022-07-25T00:03:40.940Z,101030.22
2022-07-25T00:06:18.422Z,101017.56
2022-07-25T00:08:45.171Z,101021.78
2022-07-25T00:11:11.848Z,101011.78
2022-07-25T00:13:38.498Z,101019.75
2022-07-25T00:16:06.040Z,101011.69
2022-07-25T00:18:35.626Z,101010.91
2022-07-25T00:21:02.294Z,100999.53
2022-07-25T00:23:29.292Z,101010.38
2022-07-25T00:25:56.209Z,101006.91
2022-07-25T00:28:22.855Z,101001.66
2022-07-25T00:30:50.133Z,100999.72
2022-07-25T00:33:16.938Z,100997.03
2022-07-25T00:35:43.763Z,100996.09
2022-07-25T00:38:10.367Z,100996.28
2022-07-25T00:40:37.229Z,100989.88
2022-07-25T00:43:04.245Z,100988.97
2022-07-25T00:45:34.132Z,100987.91
2022-07-25T00:48:00.793Z,100988.69
2022-07-25T00:50:27.443Z,100990.28
2022-07-25T00:52:54.466Z,100993.94
2022-07-25T00:55:22.148Z,100984.06
2022-07-25T00:57:48.827Z,100991.63
2022-07-25T01:00:16.727Z,100985.84
2022-07-25T01:02:44.226Z,100984.78
2022-07-25T01:05:11.729Z,100980.25
2022-07-25T01:07:39.294Z,100977.38
2022-07-25T01:10:07.566Z,100964.91
2022-07-25T01:12:54.972Z,100961.38
2022-07-25T01:15:24.313Z,100967.28
2022-07-25T01:17:51.431Z,100967.00
2022-07-25T01:20:29.447Z,100965.06
2022-07-25T01:22:56.547Z,100968.50
2022-07-25T01:25:24.005Z,100968.31
2022-07-25T01:27:55.697Z,100959.06
2022-07-25T01:30:24.228Z,100950.06
2022-07-25T01:32:50.885Z,100954.38
2022-07-25T01:35:17.664Z,100953.31
2022-07-25T01:37:46.159Z,100950.38
2022-07-25T01:40:14.105Z,100948.47
2022-07-25T01:42:41.845Z,100943.00
2022-07-25T01:45:09.128Z,100947.28
2022-07-25T01:47:35.822Z,100940.97
2022-07-25T01:50:02.491Z,100939.13
2022-07-25T01:52:29.136Z,100936.34
2022-07-25T01:54:55.826Z,100929.97
2022-07-25T01:57:23.271Z,100932.56
2022-07-25T01:59:56.839Z,100927.09
2022-07-25T02:02:23.476Z,100923.53
2022-07-25T02:04:50.143Z,100922.59
2022-07-25T02:07:16.867Z,100918.06
2022-07-25T02:09:43.486Z,100917.88
2022-07-25T02:12:10.160Z,100923.88
2022-07-25T02:14:36.995Z,100916.69
2022-07-25T02:17:03.884Z,100915.81
2022-07-25T02:19:30.594Z,100908.81
2022-07-25T02:21:57.210Z,100910.44
2022-07-25T02:24:23.837Z,100904.19
2022-07-25T02:26:50.462Z,100902.38
2022-07-25T02:29:17.118Z,100894.19
2022-07-25T02:31:48.628Z,100899.56
2022-07-25T02:34:15.256Z,100904.19
2022-07-25T02:36:41.873Z,100907.84
2022-07-25T02:39:08.573Z,100904.41
2022-07-25T02:41:35.263Z,100890.22
2022-07-25T02:44:01.861Z,100895.47
2022-07-25T02:46:28.578Z,100895.25
2022-07-25T02:48:55.307Z,100901.50
2022-07-25T02:51:21.982Z,100899.56
2022-07-25T02:53:58.193Z,100897.66
2022-07-25T02:56:26.909Z,100903.88
2022-07-25T02:58:56.605Z,100898.38
2022-07-25T03:01:23.281Z,100901.19
2022-07-25T03:03:50.186Z,100910.09
2022-07-25T03:06:17.101Z,100902.91
2022-07-25T03:08:43.748Z,100904.53
2022-07-25T03:11:11.555Z,100898.16
2022-07-25T03:13:38.172Z,100905.50
2022-07-25T03:16:05.187Z,100909.13
2022-07-25T03:18:31.800Z,100909.78
2022-07-25T03:20:58.569Z,100909.34
2022-07-25T03:23:27.313Z,100898.50
2022-07-25T03:25:54.892Z,100888.59
2022-07-25T03:28:21.508Z,100893.00
2022-07-25T03:30:48.106Z,100887.75
2022-07-25T03:33:14.721Z,100890.19
2022-07-25T03:35:41.606Z,100878.50
2022-07-25T03:38:08.426Z,100877.50
2022-07-25T03:40:36.588Z,100891.59
2022-07-25T03:43:03.362Z,100891.38
2022-07-25T03:45:30.279Z,100895.69
2022-07-25T03:47:56.933Z,100890.09
2022-07-25T03:50:23.763Z,100890.81
2022-07-25T03:52:50.339Z,100899.66
2022-07-25T03:55:16.990Z,100890.72
2022-07-25T03:57:43.673Z,100890.72
2022-07-25T04:00:12.358Z,100875.44
2022-07-25T04:02:39.087Z,100877.16
2022-07-25T04:05:07.973Z,100868.09
2022-07-25T04:07:35.206Z,100861.03
2022-07-25T04:10:02.209Z,100864.69
2022-07-25T04:12:28.935Z,100868.34
2022-07-25T04:14:55.511Z,100859.31
2022-07-25T04:17:22.314Z,100855.63
2022-07-25T04:19:51.887Z,100860.03
2022-07-25T04:22:18.550Z,100861.03
2022-07-25T04:24:45.150Z,100852.09
2022-07-25T04:27:11.813Z,100849.28
2022-07-25T04:29:38.435Z,100835.59
2022-07-25T04:32:05.876Z,100842.59
2022-07-25T04:34:32.548Z,100845.19
2022-07-25T04:36:59.136Z,100842.50
2022-07-25T04:39:26.023Z,100844.31
2022-07-25T04:41:52.666Z,100847.88
2022-07-25T04:44:19.352Z,100843.38
2022-07-25T04:46:45.952Z,100852.16
2022-07-25T04:49:12.678Z,100842.03
2022-07-25T04:51:39.388Z,100845.25
2022-07-25T04:54:06.573Z,100847.41
2022-07-25T04:56:33.561Z,100854.91
2022-07-25T04:59:06.377Z,100848.00
2022-07-25T05:01:33.849Z,100842.03
2022-07-25T05:04:00.541Z,100836.94
2022-07-25T05:06:27.149Z,100829.50
2022-07-25T05:08:53.834Z,100839.16
2022-07-25T05:11:20.487Z,100825.84
2022-07-25T05:13:47.120Z,100822.16
2022-07-25T05:16:13.824Z,100810.41
2022-07-25T05:18:40.760Z,100805.91
2022-07-25T05:21:10.687Z,100807.63
2022-07-25T05:23:37.281Z,100808.34
2022-07-25T05:26:03.927Z,100795.50
2022-07-25T05:28:30.527Z,100802.50
2022-07-25T05:30:57.175Z,100797.09
2022-07-25T05:33:23.853Z,100787.19
2022-07-25T05:35:50.509Z,100797.84
2022-07-25T05:38:17.168Z,100797.63
2022-07-25T05:40:43.871Z,100802.78
2022-07-25T05:43:10.747Z,100799.84
2022-07-25T05:45:37.656Z,100785.28
2022-07-25T05:48:04.566Z,100777.09
2022-07-25T05:50:31.676Z,100783.19
2022-07-25T05:52:58.343Z,100785.88
2022-07-25T05:55:24.959Z,100791.41
2022-07-25T05:57:51.529Z,100785.16
2022-07-25T06:00:18.378Z,100770.94
2022-07-25T06:02:45.121Z,100762.75
2022-07-25T06:05:11.841Z,100763.38
2022-07-25T06:07:38.462Z,100760.44
2022-07-25T06:10:05.596Z,100758.47
2022-07-25T06:12:33.760Z,100767.31
2022-07-25T06:15:04.159Z,100762.78
2022-07-25T06:17:32.656Z,100759.94
2022-07-25T06:19:59.583Z,100749.16
2022-07-25T06:22:26.637Z,100741.84
2022-07-25T06:24:53.231Z,100727.38
2022-07-25T06:27:21.649Z,100737.91
2022-07-25T06:29:49.853Z,100742.00
2022-07-25T06:32:16.466Z,100738.19
2022-07-25T06:34:43.128Z,100734.16
2022-07-25T06:37:09.833Z,100721.28
2022-07-25T06:39:36.538Z,100726.59
2022-07-25T06:42:04.544Z,100720.06
2022-07-25T06:44:35.064Z,100715.44
2022-07-25T06:47:02.624Z,100726.69
2022-07-25T06:49:29.395Z,100727.19
2022-07-25T06:51:55.997Z,100739.09
2022-07-25T06:54:22.908Z,100738.31
2022-07-25T06:56:49.701Z,100748.47
2022-07-25T06:59:16.363Z,100751.91
2022-07-25T07:01:43.731Z,100753.50
2022-07-25T07:04:12.632Z,100745.28
2022-07-25T07:06:40.022Z,100745.28
2022-07-25T07:09:07.985Z,100749.72
2022-07-25T07:11:34.752Z,100740.63
2022-07-25T07:14:03.670Z,100738.28
2022-07-25T07:16:31.343Z,100733.09
2022-07-25T07:18:58.445Z,100736.19
2022-07-25T07:21:25.170Z,100729.19
2022-07-25T07:23:53.669Z,100729.25
2022-07-25T07:26:20.682Z,100717.84
2022-07-25T07:28:47.327Z,100725.44
2022-07-25T07:31:17.529Z,100718.03
2022-07-25T07:33:44.591Z,100722.44
2022-07-25T07:36:11.421Z,100718.88
2022-07-25T07:38:38.048Z,100727.84
2022-07-25T07:41:04.659Z,100723.91
2022-07-25T07:43:32.032Z,100724.13
2022-07-25T07:46:01.094Z,100716.09
2022-07-25T07:48:32.038Z,100714.56
2022-07-25T07:51:00.197Z,100718.59
2022-07-25T07:53:47.258Z,100717.72
2022-07-25T07:56:15.914Z,100719.00
2022-07-25T07:58:43.310Z,100726.72
2022-07-25T08:01:09.971Z,100713.66
2022-07-25T08:03:37.440Z,100715.97
2022-07-25T08:06:04.795Z,100717.44
2022-07-25T08:08:31.875Z,100719.72
2022-07-25T08:10:59.675Z,100716.47
2022-07-25T08:13:30.522Z,100717.19
2022-07-25T08:15:59.711Z,100707.84
2022-07-25T08:18:29.941Z,100715.53
2022-07-25T08:20:57.393Z,100708.00
2022-07-25T08:23:25.777Z,100701.59
2022-07-25T08:25:52.593Z,100712.13
2022-07-25T08:28:19.996Z,100695.22
2022-07-25T08:30:46.902Z,100704.88
2022-07-25T08:33:16.428Z,100701.75
2022-07-25T08:35:54.910Z,100693.53
2022-07-25T08:38:23.973Z,100703.50
2022-07-25T08:40:51.594Z,100698.41
2022-07-25T08:43:19.603Z,100693.13
2022-07-25T08:45:53.985Z,100700.53
2022-07-25T08:48:23.999Z,100692.97
2022-07-25T08:50:51.723Z,100692.56
2022-07-25T08:53:36.100Z,100696.97
2022-07-25T08:56:14.891Z,100691.56
2022-07-25T08:58:44.589Z,100701.66
2022-07-25T09:01:12.708Z,100692.00
2022-07-25T09:03:40.436Z,100701.81
2022-07-25T09:06:21.970Z,100699.84
2022-07-25T09:08:59.743Z,100692.28
2022-07-25T09:11:34.713Z,100683.72
2022-07-25T09:14:11.052Z,100685.44
2022-07-25T09:16:45.305Z,100680.59
2022-07-25T09:19:16.248Z,100681.84
2022-07-25T09:21:45.453Z,100687.00
2022-07-25T09:24:16.137Z,100689.13
2022-07-25T09:26:44.287Z,100682.44
2022-07-25T09:29:21.566Z,100679.44
2022-07-25T09:31:48.463Z,100682.31
2022-07-25T09:34:39.592Z,100673.91
2022-07-25T09:37:12.623Z,100677.44
2022-07-25T09:39:48.416Z,100663.63
2022-07-25T09:42:28.663Z,100673.16
2022-07-25T09:44:59.848Z,100665.63
2022-07-25T09:47:27.424Z,100673.03
2022-07-25T09:49:54.077Z,100672.75
2022-07-25T09:52:20.784Z,100672.19
2022-07-25T09:54:47.542Z,100666.22
2022-07-25T09:57:14.383Z,100652.25
2022-07-25T09:59:41.043Z,100665.50
2022-07-25T10:02:11.812Z,100655.50
2022-07-25T10:05:03.796Z,100654.22
2022-07-25T10:07:31.675Z,100651.06
2022-07-25T10:10:00.153Z,100647.25
2022-07-25T10:12:26.815Z,100652.81
2022-07-25T10:15:13.956Z,100644.69
2022-07-25T10:17:42.042Z,100654.38
2022-07-25T10:20:10.419Z,100659.47
2022-07-25T10:22:55.745Z,100645.09
2022-07-25T10:25:23.279Z,100644.97
2022-07-25T10:27:58.295Z,100645.69
2022-07-25T10:30:27.567Z,100640.28
2022-07-25T10:33:10.581Z,100641.72
2022-07-25T10:35:38.248Z,100642.28
2022-07-25T10:38:06.049Z,100650.53
2022-07-25T10:40:38.611Z,100661.09
2022-07-25T10:43:21.061Z,100666.94
2022-07-25T10:45:57.048Z,100653.41
2022-07-25T10:48:23.665Z,100656.69
2022-07-25T10:50:59.000Z,100649.13
2022-07-25T10:53:34.764Z,100654.25
2022-07-25T10:56:28.704Z,100653.25
2022-07-25T10:59:00.810Z,100647.69
2022-07-25T11:01:32.269Z,100650.53
2022-07-25T11:04:03.944Z,100642.38
2022-07-25T11:06:41.825Z,100636.41
2022-07-25T11:09:22.663Z,100652.75
2022-07-25T11:11:54.058Z,100646.75
2022-07-25T11:14:33.267Z,100640.88
2022-07-25T11:17:15.294Z,100630.31
2022-07-25T11:19:53.941Z,100636.00
2022-07-25T11:22:20.829Z,100626.72
2022-07-25T11:24:47.947Z,100624.84
2022-07-25T11:27:28.474Z,100619.91
2022-07-25T11:30:21.583Z,100619.19
2022-07-25T11:32:58.106Z,100623.50
2022-07-25T11:35:33.134Z,100621.34
2022-07-25T11:38:02.554Z,100626.38
2022-07-25T11:40:30.509Z,100627.66
2022-07-25T11:42:59.743Z,100617.44
2022-07-25T11:45:29.212Z,100616.72
2022-07-25T11:48:11.837Z,100617.00
2022-07-25T11:50:44.320Z,100616.31
2022-07-25T11:53:14.831Z,100622.16
2022-07-25T11:55:43.381Z,100609.06
2022-07-25T11:58:13.016Z,100609.78
2022-07-25T12:00:42.059Z,100615.06
2022-07-25T12:03:19.931Z,100613.78
2022-07-25T12:05:48.112Z,100612.59
2022-07-25T12:08:20.402Z,100605.78
2022-07-25T12:10:48.630Z,100609.94
2022-07-25T12:13:28.199Z,100610.06
2022-07-25T12:15:57.162Z,100603.09
2022-07-25T12:18:24.026Z,100614.75
2022-07-25T12:20:50.978Z,100597.81
2022-07-25T12:23:18.815Z,100597.53
2022-07-25T12:25:46.459Z,100587.06
2022-07-25T12:28:14.001Z,100591.06
2022-07-25T12:30:42.606Z,100586.22
2022-07-25T12:33:10.209Z,100587.63
2022-07-25T12:35:39.571Z,100581.50
2022-07-25T12:38:06.290Z,100573.84
2022-07-25T12:40:33.030Z,100570.44
2022-07-25T12:43:00.437Z,100555.63
2022-07-25T12:45:28.031Z,100559.78
2022-07-25T12:47:54.938Z,100554.63
2022-07-25T12:50:22.452Z,100553.94
2022-07-25T12:52:49.074Z,100560.31
2022-07-25T12:55:18.077Z,100546.09
2022-07-25T12:57:45.894Z,100546.38
2022-07-25T13:00:15.724Z,100542.81
2022-07-25T13:02:43.597Z,100544.25
2022-07-25T13:05:10.673Z,100541.94
2022-07-25T13:07:37.978Z,100545.41
2022-07-25T13:10:05.767Z,100547.69
2022-07-25T13:12:32.541Z,100542.56
2022-07-25T13:14:59.812Z,100539.44
2022-07-25T13:17:27.904Z,100540.25
2022-07-25T13:19:56.601Z,100529.69
2022-07-25T13:22:24.447Z,100526.19
2022-07-25T13:24:51.484Z,100525.50
2022-07-25T13:27:19.805Z,100517.34
2022-07-25T13:29:47.356Z,100514.31
2022-07-25T13:32:14.183Z,100511.47
2022-07-25T13:34:40.889Z,100514.63
2022-07-25T13:37:07.650Z,100505.56
2022-07-25T13:39:42.889Z,100505.00
2022-07-25T13:42:09.803Z,100500.00
2022-07-25T13:44:36.459Z,100498.22
2022-07-25T13:47:03.070Z,100499.84
2022-07-25T13:49:31.477Z,100485.72
2022-07-25T13:51:58.282Z,100495.13
2022-07-25T13:54:24.997Z,100493.19
2022-07-25T13:56:51.803Z,100487.66
2022-07-25T13:59:21.546Z,100476.53
2022-07-25T14:01:49.245Z,100472.56
2022-07-25T14:04:16.092Z,100467.72
2022-07-25T14:06:43.240Z,100474.44
2022-07-25T14:09:10.129Z,100460.34
2022-07-25T14:11:37.162Z,100466.34
2022-07-25T14:14:04.027Z,100468.09
2022-07-25T14:16:30.797Z,100472.38
2022-07-25T14:18:57.479Z,100471.22
2022-07-25T14:21:24.203Z,100469.13
2022-07-25T14:23:52.376Z,100464.28
2022-07-25T14:26:19.020Z,100467.53
2022-07-25T14:28:45.699Z,100467.09
2022-07-25T14:31:15.564Z,100460.41
2022-07-25T14:33:42.264Z,100468.53
2022-07-25T14:36:11.783Z,100460.41
2022-07-25T14:38:38.680Z,100457.25
2022-07-25T14:41:12.547Z,100447.47
2022-07-25T14:43:40.067Z,100448.16
2022-07-25T14:46:08.134Z,100443.59
2022-07-25T14:48:37.337Z,100443.00
2022-07-25T14:51:04.840Z,100441.03
2022-07-25T14:53:32.449Z,100440.00
2022-07-25T14:55:59.452Z,100426.31
2022-07-25T14:58:26.164Z,100438.88
2022-07-25T15:00:52.852Z,100443.13
2022-07-25T15:03:19.624Z,100445.69
2022-07-25T15:05:46.257Z,100437.00
2022-07-25T15:08:14.364Z,100435.97
2022-07-25T15:10:41.266Z,100425.78
2022-07-25T15:13:30.095Z,100428.66
2022-07-25T15:15:54.684Z,100432.41
2022-07-25T15:18:21.386Z,100434.31
2022-07-25T15:20:48.747Z,100430.66
2022-07-25T15:23:15.449Z,100427.81
2022-07-25T15:28:29.047Z,100429.78
2022-07-25T15:30:55.896Z,100427.88
2022-07-25T15:33:22.560Z,100440.50
2022-07-25T15:35:49.224Z,100431.84
2022-07-25T15:38:16.260Z,100426.28
2022-07-25T15:40:43.895Z,100416.06
2022-07-25T15:43:10.952Z,100425.34
2022-07-25T15:45:39.555Z,100414.66
2022-07-25T15:48:11.361Z,100406.25
2022-07-25T15:50:43.080Z,100401.47
2022-07-25T15:53:10.704Z,100401.59
2022-07-25T15:55:39.076Z,100397.31
2022-07-25T15:58:06.132Z,100389.66
2022-07-25T16:00:34.579Z,100390.97
2022-07-25T16:03:01.360Z,100386.84
2022-07-25T16:05:28.587Z,100388.81
2022-07-25T16:07:55.551Z,100386.41
2022-07-25T16:10:22.230Z,100392.81
2022-07-25T16:12:48.900Z,100389.28
2022-07-25T16:15:16.201Z,100397.50
2022-07-25T16:17:42.836Z,100395.66
2022-07-25T16:20:10.316Z,100391.13
2022-07-25T16:22:38.204Z,100385.84
2022-07-25T16:25:05.773Z,100378.59
2022-07-25T16:27:32.718Z,100382.00
2022-07-25T16:29:59.373Z,100377.59
2022-07-25T16:32:25.976Z,100374.91
2022-07-25T16:34:52.604Z,100368.63
2022-07-25T16:37:20.542Z,100367.88
2022-07-25T16:39:47.183Z,100357.19
2022-07-25T16:42:13.813Z,100346.38
2022-07-25T16:44:40.474Z,100342.72
2022-07-25T16:47:07.804Z,100333.59
2022-07-25T16:49:34.444Z,100333.31
2022-07-25T16:52:01.072Z,100329.63
2022-07-25T16:54:27.753Z,100330.47
2022-07-25T16:56:58.279Z,100332.19
2022-07-25T16:59:26.259Z,100325.91
2022-07-25T17:01:53.073Z,100325.59
2022-07-25T17:04:19.844Z,100318.22
2022-07-25T17:06:47.778Z,100317.19
2022-07-25T17:09:14.545Z,100313.66
2022-07-25T17:11:41.208Z,100311.09
2022-07-25T17:14:08.046Z,100310.22
2022-07-25T17:16:34.781Z,100314.78
2022-07-25T17:19:02.899Z,100302.28
2022-07-25T17:21:29.569Z,100299.00
2022-07-25T17:24:02.342Z,100301.13
2022-07-25T17:26:29.031Z,100297.88
2022-07-25T17:28:59.648Z,100303.41
2022-07-25T17:31:27.678Z,100306.44
2022-07-25T17:33:54.351Z,100300.44
2022-07-25T17:36:21.123Z,100310.69
2022-07-25T17:38:55.356Z,100310.00
2022-07-25T17:41:21.982Z,100311.31
2022-07-25T17:43:48.610Z,100320.69
2022-07-25T17:46:16.184Z,100308.31
2022-07-25T17:48:43.027Z,100326.53
2022-07-25T17:51:09.706Z,100323.97
2022-07-25T17:53:36.312Z,100331.38
2022-07-25T17:56:03.622Z,100331.38
2022-07-25T17:58:31.803Z,100322.53
2022-07-25T18:01:01.425Z,100317.28
2022-07-25T18:03:28.860Z,100323.84
2022-07-25T18:05:55.791Z,100314.59
2022-07-25T18:08:22.745Z,100319.88
2022-07-25T18:10:50.015Z,100330.13
2022-07-25T18:13:18.698Z,100326.84
2022-07-25T18:15:45.917Z,100315.75
2022-07-25T18:18:16.953Z,100317.16
2022-07-25T18:20:47.215Z,100298.09
2022-07-25T18:23:14.114Z,100295.69
2022-07-25T18:25:40.827Z,100308.63
2022-07-25T18:28:07.709Z,100297.38
2022-07-25T18:30:36.397Z,100284.31
2022-07-25T18:33:09.179Z,100279.03
2022-07-25T18:35:38.480Z,100282.59
2022-07-25T18:38:15.844Z,100289.81
2022-07-25T18:40:42.496Z,100287.56
2022-07-25T18:43:09.342Z,100294.09
2022-07-25T18:45:38.423Z,100292.81
2022-07-25T18:48:06.864Z,100296.06
2022-07-25T18:50:34.162Z,100290.22
2022-07-25T18:53:01.172Z,100292.50
2022-07-25T18:55:28.035Z,100298.16
2022-07-25T18:57:55.259Z,100292.34
2022-07-25T19:00:25.240Z,100300.72
2022-07-25T19:02:54.922Z,100298.41
2022-07-25T19:05:24.813Z,100298.84
2022-07-25T19:07:52.435Z,100301.69
2022-07-25T19:10:20.205Z,100290.28
2022-07-25T19:12:46.832Z,100292.88
2022-07-25T19:15:14.580Z,100285.88
2022-07-25T19:17:41.669Z,100269.72
2022-07-25T19:20:09.445Z,100272.41
2022-07-25T19:22:37.070Z,100261.59
2022-07-25T19:25:08.367Z,100254.59
2022-07-25T19:27:36.244Z,100245.81
2022-07-25T19:30:07.434Z,100239.97
2022-07-25T19:32:35.721Z,100238.69
2022-07-25T19:35:04.408Z,100234.56
2022-07-25T19:37:31.280Z,100236.53
2022-07-25T19:39:58.029Z,100243.91
2022-07-25T19:42:24.801Z,100246.88
2022-07-25T19:44:52.337Z,100243.47
2022-07-25T19:47:19.103Z,100228.41
2022-07-25T19:49:45.898Z,100226.72
2022-07-25T19:52:12.922Z,100226.56
2022-07-25T19:54:39.972Z,100230.25
2022-07-25T19:57:09.832Z,100234.81
2022-07-25T19:59:36.955Z,100227.69
2022-07-25T20:02:04.894Z,100233.97
2022-07-25T20:04:31.700Z,100241.31
2022-07-25T20:07:01.139Z,100237.31
2022-07-25T20:09:29.448Z,100234.75
2022-07-25T20:11:56.821Z,100223.25
2022-07-25T20:14:23.970Z,100212.75
2022-07-25T20:16:51.117Z,100216.31
2022-07-25T20:19:18.156Z,100207.50
2022-07-25T20:21:45.077Z,100202.38
2022-07-25T20:24:13.625Z,100207.75
2022-07-25T20:26:42.543Z,100199.81
2022-07-25T20:29:09.641Z,100202.53
2022-07-25T20:31:37.059Z,100208.88
2022-07-25T20:34:03.918Z,100201.78
2022-07-25T20:36:30.533Z,100194.69
2022-07-25T20:39:01.032Z,100194.81
2022-07-25T20:41:27.672Z,100194.56
2022-07-25T20:43:55.674Z,100195.41
2022-07-25T20:46:22.817Z,100200.78
2022-07-25T20:48:49.595Z,100205.50
2022-07-25T20:51:16.708Z,100201.78
2022-07-25T20:53:43.975Z,100202.63
2022-07-25T20:56:18.151Z,100200.09
2022-07-25T20:58:44.752Z,100189.31
2022-07-25T21:01:11.887Z,100194.97
2022-07-25T21:03:38.566Z,100196.25
2022-07-25T21:06:05.320Z,100188.28
2022-07-25T21:08:31.982Z,100177.66
2022-07-25T21:10:58.999Z,100177.91
2022-07-25T21:13:25.792Z,100172.06
2022-07-25T21:15:57.899Z,100172.31
2022-07-25T21:18:24.609Z,100162.81
2022-07-25T21:20:51.309Z,100159.53
2022-07-25T21:23:17.981Z,100168.72
2022-07-25T21:25:44.604Z,100166.31
2022-07-25T21:28:11.258Z,100163.88
2022-07-25T21:30:41.144Z,100159.44
2022-07-25T21:33:13.997Z,100159.59
2022-07-25T21:35:49.352Z,100154.22
2022-07-25T21:38:26.098Z,100155.06
2022-07-25T21:40:55.806Z,100157.63
2022-07-25T21:43:22.439Z,100158.47
2022-07-25T21:45:49.226Z,100160.78
2022-07-25T21:48:15.948Z,100160.66
2022-07-25T21:50:49.334Z,100165.03
2022-07-25T21:53:17.377Z,100169.59
2022-07-25T21:55:44.096Z,100163.34
2022-07-25T21:58:10.833Z,100161.34
2022-07-25T22:00:43.841Z,100171.88
2022-07-25T22:03:12.516Z,100145.94
2022-07-25T22:05:39.550Z,100151.91
2022-07-25T22:08:06.305Z,100155.47
2022-07-25T22:10:33.664Z,100150.06
2022-07-25T22:13:00.442Z,100150.91
2022-07-25T22:15:27.087Z,100144.53
2022-07-25T22:17:54.149Z,100132.78
2022-07-25T22:20:21.024Z,100132.78
2022-07-25T22:22:48.086Z,100125.56
2022-07-25T22:25:15.580Z,100109.38
2022-07-25T22:27:42.353Z,100121.84
2022-07-25T22:30:12.328Z,100115.34
2022-07-25T22:32:43.197Z,100128.94
2022-07-25T22:35:09.977Z,100122.00
2022-07-25T22:37:36.621Z,100134.50
2022-07-25T22:40:03.877Z,100113.78
2022-07-25T22:42:30.513Z,100113.66
2022-07-25T22:44:57.145Z,100116.19
2022-07-25T22:47:23.805Z,100108.84
2022-07-25T22:49:50.420Z,100097.91
2022-07-25T22:52:17.087Z,100093.38
2022-07-25T22:54:43.844Z,100088.84
2022-07-25T22:57:10.528Z,100088.84
2022-07-25T22:59:37.332Z,100089.97
2022-07-25T23:02:03.940Z,100090.94
2022-07-25T23:04:30.646Z,100079.47
2022-07-25T23:06:57.260Z,100077.63
2022-07-25T23:09:24.108Z,100070.41
2022-07-25T23:11:50.942Z,100074.94
2022-07-25T23:14:17.682Z,100066.97
2022-07-25T23:16:44.346Z,100065.28
2022-07-25T23:19:11.152Z,100067.25
2022-07-25T23:21:37.915Z,100059.16
2022-07-25T23:24:06.014Z,100054.78
2022-07-25T23:26:32.655Z,100062.72
2022-07-25T23:28:59.251Z,100055.63
2022-07-25T23:31:25.875Z,100059.47
2022-07-25T23:33:52.536Z,100057.88
2022-07-25T23:36:19.184Z,100043.94
2022-07-25T23:38:45.825Z,100027.91
2022-07-25T23:41:12.453Z,100019.13
2022-07-25T23:43:56.915Z,100006.78
2022-07-25T23:46:29.326Z,100027.78
2022-07-25T23:48:58.619Z,100013.56
2022-07-25T23:51:25.879Z,100004.91
2022-07-25T23:53:52.491Z,100006.03
2022-07-25T23:56:21.188Z,100006.19
2022-07-25T23:58:50.153Z,100013.53
